Terminal Aerodrome Forecast
Issued by NWS

Home | Current Version | Previous Version | Text Only | Print | Product List | Glossary On
Versions: 1 2 3 4 5 6 7 8 9 10 11 12 13 14
000
FTUS41 KCLE 260500
TAFFDY
TAF
KFDY 260540Z 2606/2706 22010KT P6SM SCT030 BKN150
     FM261000 21005KT 6SM HZ BKN012
     FM261500 20010KT P6SM BKN030
     FM261800 19015G22KT P6SM BKN040
     FM262300 18017G25KT P6SM VCTS BKN035CB OVC080
     FM270300 19012KT P6SM BKN020=

USA.gov is the U.S. government's official web portal to all federal, state and local government web resources and services.